SBKP/CPQ METAR and TAF weather

Enter ICAO airport designator
Station Type Date Time Source
SBKP METAR 2021/07/30 23:00 UTC NOAA

SBKP 302300Z 14013KT CAVOK 10/04 Q1026


Station Type Date Time Source
SBKP Decoded METAR 2021/07/30 23:00 UTC NOAA

Campinas Aeroporto , Brazil (SBKP) 23-00S 047-08W 661M
Jul 30, 2021 - 07:00 PM EDT / 2021.07.30 2300 UTC
Wind: from the SE (140 degrees) at 15 MPH (13 KT):0
Visibility: greater than 7 mile(s):0
Temperature: 50 F (10 C)
Dew Point: 39 F (4 C)
Relative Humidity: 66%
Pressure (altimeter): 30.30 in. Hg (1026 hPa)
ob: SBKP 302300Z 14013KT CAVOK 10/04 Q1026
cycle: 23

Station Type Date Time Source
SBKP TAF 2021/07/30 18:06 UTC NOAA

TAF SBKP 301600Z 3018/3118 14010KT CAVOK TX17/3018Z TN06/3109Z
TEMPO 3021/3106 14010G25KT
RMK PGL

Example: see airport list